Time;durP1;ratioP1;P1;durP2;ratioP2;P2;SDS_P1;SDS_P2;PMS_P1;PMS_P2;Temp;Humidity;BMP_temperature;BMP_pressure;BME280_temperature;BME280_humidity;BME280_pressure;Samples;Min_cycle;Max_cycle;Signal;HPM_P1;HPM_P2
2021/03/02 00:02:02;;;;;;;24.95;12.38;;;;;;;4.84;67.79;97596.00;5072943;28;20052;-67
2021/03/02 00:04:28;;;;;;;26.17;12.88;;;;;;;4.81;67.75;97597.34;5073206;28;20045;-66
2021/03/02 00:06:56;;;;;;;24.52;12.63;;;;;;;4.77;67.59;97600.78;5072952;28;20411;-67
2021/03/02 00:09:23;;;;;;;29.20;14.43;;;;;;;4.72;67.80;97605.03;5072890;28;20098;-67
2021/03/02 00:11:50;;;;;;;25.77;13.93;;;;;;;4.67;67.89;97604.16;5073219;28;20508;-66
2021/03/02 00:14:16;;;;;;;24.88;13.15;;;;;;;4.63;68.12;97606.53;5073154;28;20049;-67
2021/03/02 00:16:43;;;;;;;26.55;13.85;;;;;;;4.55;68.90;97600.75;5072407;28;20048;-66
2021/03/02 00:19:14;;;;;;;25.60;13.02;;;;;;;4.49;69.11;97604.44;5072554;28;20419;-67
2021/03/02 00:21:45;;;;;;;24.20;12.77;;;;;;;4.40;69.23;97607.56;5067371;28;20040;-67
2021/03/02 00:24:23;;;;;;;25.50;12.90;;;;;;;4.34;69.58;97608.56;5052281;28;20056;-67
2021/03/02 00:26:54;;;;;;;25.25;13.05;;;;;;;4.29;70.05;97605.78;5053027;28;20045;-67
2021/03/02 00:29:20;;;;;;;25.83;13.30;;;;;;;4.26;70.06;97598.16;5051804;28;20049;-66
2021/03/02 00:31:50;;;;;;;27.10;13.45;;;;;;;4.26;70.03;97603.56;5053094;28;20056;-66
2021/03/02 00:34:16;;;;;;;28.85;13.80;;;;;;;4.25;70.08;97603.81;5051465;28;20041;-66
2021/03/02 00:36:42;;;;;;;27.00;12.82;;;;;;;4.24;70.18;97611.09;5053341;28;20052;-66
2021/03/02 00:39:08;;;;;;;24.90;12.90;;;;;;;4.26;70.16;97611.66;5051614;28;20100;-67
2021/03/02 00:41:34;;;;;;;27.02;13.57;;;;;;;4.25;70.26;97615.41;5052922;28;20057;-66
2021/03/02 00:44:00;;;;;;;26.30;13.35;;;;;;;4.20;70.50;97618.03;5052159;28;20041;-67
2021/03/02 00:46:27;;;;;;;28.48;13.85;;;;;;;4.16;70.44;97615.00;5052225;28;20068;-67
2021/03/02 00:48:53;;;;;;;27.42;13.93;;;;;;;4.17;70.59;97613.13;5052285;28;20123;-66
2021/03/02 00:51:19;;;;;;;27.98;14.15;;;;;;;4.15;70.66;97612.56;5053049;28;20041;-67
2021/03/02 00:53:45;;;;;;;27.35;13.15;;;;;;;4.17;70.39;97613.13;5072486;28;20056;-67
2021/03/02 00:56:11;;;;;;;27.02;14.02;;;;;;;4.17;70.48;97607.72;5071340;28;20048;-67
2021/03/02 00:58:38;;;;;;;24.38;13.65;;;;;;;4.17;70.41;97607.72;5072709;28;20102;-67
2021/03/02 01:01:04;;;;;;;26.20;13.38;;;;;;;4.18;70.36;97604.81;5071043;28;20079;-67
2021/03/02 01:03:30;;;;;;;25.80;13.63;;;;;;;4.18;70.37;97609.38;5071867;28;20045;-67
2021/03/02 01:05:56;;;;;;;27.33;13.88;;;;;;;4.17;70.44;97605.03;5071448;28;20106;-66
2021/03/02 01:08:22;;;;;;;24.75;13.07;;;;;;;4.17;70.58;97607.72;5071944;28;20558;-67
2021/03/02 01:10:48;;;;;;;24.88;13.50;;;;;;;4.14;70.93;97600.97;5067732;28;20057;-67
2021/03/02 01:13:14;;;;;;;29.20;14.05;;;;;;;4.15;70.94;97599.09;5051346;28;20090;-67
2021/03/02 01:15:41;;;;;;;28.13;14.13;;;;;;;4.14;70.88;97598.28;5051900;28;20511;-66
2021/03/02 01:18:07;;;;;;;28.15;13.93;;;;;;;4.15;70.78;97599.09;5051021;28;20106;-67
2021/03/02 01:20:33;;;;;;;28.65;13.45;;;;;;;4.14;70.80;97602.84;5052265;28;20045;-66
2021/03/02 01:22:59;;;;;;;26.83;13.77;;;;;;;4.14;70.79;97595.56;5065963;28;20051;-66
2021/03/02 01:25:26;;;;;;;26.80;13.93;;;;;;;4.15;70.76;97593.69;5071947;28;20048;-66
2021/03/02 01:27:52;;;;;;;25.25;13.27;;;;;;;4.11;70.60;97592.53;5071035;28;20438;-66
2021/03/02 01:30:22;;;;;;;26.38;13.65;;;;;;;4.08;70.76;97587.66;5071658;28;20098;-66
2021/03/02 01:32:49;;;;;;;30.67;14.30;;;;;;;4.04;70.87;97581.13;5070944;28;20040;-66
2021/03/02 01:35:16;;;;;;;28.30;14.70;;;;;;;3.99;71.36;97583.75;5071144;28;20053;-67
2021/03/02 01:37:42;;;;;;;23.88;13.25;;;;;;;3.89;71.57;97579.00;5071404;28;20049;-66
2021/03/02 01:40:10;;;;;;;28.13;13.40;;;;;;;3.85;71.62;97572.47;5070804;28;20051;-67
2021/03/02 01:42:36;;;;;;;27.25;13.75;;;;;;;3.82;71.90;97572.97;5071554;28;20037;-67
2021/03/02 01:45:03;;;;;;;26.63;14.25;;;;;;;3.82;71.99;97579.16;5070270;28;20048;-67
2021/03/02 01:47:29;;;;;;;24.08;13.38;;;;;;;3.85;71.66;97567.88;5071767;28;20047;-66
2021/03/02 01:49:56;;;;;;;25.13;13.10;;;;;;;3.85;71.30;97573.28;5070583;28;20036;-66
2021/03/02 01:52:22;;;;;;;25.90;11.90;;;;;;;3.85;71.25;97580.53;5060506;28;20107;-66
2021/03/02 01:54:48;;;;;;;25.58;13.65;;;;;;;3.84;71.28;97571.66;5050623;28;20128;-66
2021/03/02 01:57:14;;;;;;;31.13;13.93;;;;;;;3.85;71.46;97567.06;5050837;28;20459;-67
2021/03/02 01:59:40;;;;;;;27.48;12.68;;;;;;;3.86;71.17;97568.69;5050676;28;20049;-66
2021/03/02 02:02:07;;;;;;;25.70;13.15;;;;;;;3.84;71.14;97566.25;5050684;28;20049;-67
2021/03/02 02:04:40;;;;;;;29.67;13.45;;;;;;;3.82;71.20;97568.41;5050897;28;20049;-66
2021/03/02 02:07:12;;;;;;;17.23;9.07;;;;;;;3.80;70.91;97565.13;5050172;28;20107;-67
2021/03/02 02:09:47;;;;;;;25.73;12.40;;;;;;;3.79;71.08;97562.66;5051342;28;20420;-66
2021/03/02 02:12:19;;;;;;;22.45;11.98;;;;;;;3.75;71.29;97566.91;5049802;28;20049;-66
2021/03/02 02:14:50;;;;;;;26.13;12.38;;;;;;;3.73;71.18;97575.25;5051244;28;20508;-66
2021/03/02 02:17:20;;;;;;;23.58;12.55;;;;;;;3.70;71.28;97569.50;5049872;28;20057;-67
2021/03/02 02:19:49;;;;;;;24.80;12.95;;;;;;;3.69;71.24;97574.09;5050849;28;20052;-66
2021/03/02 02:22:30;;;;;;;25.00;12.60;;;;;;;3.67;71.03;97578.91;5059222;28;20044;-66
2021/03/02 02:25:09;;;;;;;24.52;12.25;;;;;;;3.65;71.25;97572.94;5070137;28;20395;-67
2021/03/02 02:27:37;;;;;;;26.50;11.80;;;;;;;3.64;71.08;97579.38;5071131;28;20519;-66
2021/03/02 02:30:05;;;;;;;26.02;13.05;;;;;;;3.60;71.18;97580.94;5069651;28;20579;-66
2021/03/02 02:32:32;;;;;;;25.80;12.75;;;;;;;3.56;71.35;97577.13;5071026;28;20044;-66
2021/03/02 02:35:00;;;;;;;26.20;12.15;;;;;;;3.50;71.86;97589.69;5070005;28;20040;-66
2021/03/02 02:37:29;;;;;;;26.92;13.60;;;;;;;3.44;72.38;97592.50;5070162;28;20044;-66
2021/03/02 02:39:55;;;;;;;27.92;13.30;;;;;;;3.37;72.59;97580.00;5070329;28;20045;-66
2021/03/02 02:42:23;;;;;;;26.75;12.65;;;;;;;3.35;72.47;97584.81;5069714;28;20547;-67
2021/03/02 02:44:51;;;;;;;25.88;13.43;;;;;;;3.35;72.40;97582.13;5070621;28;20052;-66
2021/03/02 02:47:17;;;;;;;26.02;12.52;;;;;;;3.36;72.64;97585.63;5069373;28;20041;-67
2021/03/02 02:49:46;;;;;;;27.48;13.05;;;;;;;3.35;72.48;97584.81;5070885;28;20098;-67
2021/03/02 02:52:14;;;;;;;22.48;11.60;;;;;;;3.36;72.34;97591.84;5059740;28;20048;-67
2021/03/02 02:54:41;;;;;;;28.10;12.70;;;;;;;3.39;72.10;97585.97;5050854;28;20458;-66
2021/03/02 02:57:09;;;;;;;22.38;11.57;;;;;;;3.40;72.00;97587.63;5049284;28;20091;-66
2021/03/02 02:59:40;;;;;;;23.00;12.15;;;;;;;3.43;71.35;97588.19;5050311;28;20526;-66
2021/03/02 03:02:10;;;;;;;25.65;12.82;;;;;;;3.40;71.49;97594.88;5049653;28;20266;-67
2021/03/02 03:04:40;;;;;;;24.67;11.82;;;;;;;3.32;71.81;97595.25;5049926;28;20115;-66
2021/03/02 03:07:12;;;;;;;26.13;11.88;;;;;;;3.24;71.96;97592.97;5050152;28;20053;-67
2021/03/02 03:09:40;;;;;;;23.83;11.63;;;;;;;3.23;71.67;97605.56;5049436;28;20052;-66
2021/03/02 03:12:09;;;;;;;23.20;12.13;;;;;;;3.19;71.56;97601.75;5050221;28;20064;-67
2021/03/02 03:14:40;;;;;;;25.85;11.30;;;;;;;3.14;71.41;97601.66;5049449;28;20048;-66
2021/03/02 03:17:10;;;;;;;25.63;11.57;;;;;;;3.11;71.34;97594.88;5049881;28;20107;-67
2021/03/02 03:19:39;;;;;;;28.13;12.45;;;;;;;3.06;71.47;97602.84;5049844;28;20044;-66
2021/03/02 03:22:05;;;;;;;26.20;12.00;;;;;;;3.02;71.59;97601.69;5057109;28;20048;-66
2021/03/02 03:24:31;;;;;;;26.58;11.40;;;;;;;2.97;71.78;97603.44;5069711;28;20047;-66
2021/03/02 03:26:58;;;;;;;21.15;10.73;;;;;;;2.95;72.02;97600.19;5070794;28;20048;-66
2021/03/02 03:29:25;;;;;;;22.65;11.65;;;;;;;2.91;71.71;97607.09;5073827;28;20040;-66
2021/03/02 03:31:54;;;;;;;23.17;11.45;;;;;;;2.86;71.95;97603.25;5073218;28;20052;-66
2021/03/02 03:34:22;;;;;;;22.73;11.73;;;;;;;2.83;72.04;97609.13;5073866;28;20499;-66
2021/03/02 03:36:48;;;;;;;24.60;12.25;;;;;;;2.79;72.22;97602.56;5073303;28;20388;-66
2021/03/02 03:39:14;;;;;;;22.88;11.18;;;;;;;2.77;72.36;97598.50;5073652;28;20036;-66
2021/03/02 03:41:40;;;;;;;23.05;11.30;;;;;;;2.74;72.30;97602.47;5073154;28;20037;-66
2021/03/02 03:44:06;;;;;;;24.48;12.30;;;;;;;2.70;72.16;97606.66;5073355;28;20045;-66
2021/03/02 03:46:32;;;;;;;26.15;10.85;;;;;;;2.66;72.30;97608.19;5073486;28;20048;-66
2021/03/02 03:48:58;;;;;;;25.60;12.57;;;;;;;2.62;72.19;97604.38;5073263;28;20071;-66
2021/03/02 03:51:27;;;;;;;26.55;11.63;;;;;;;2.59;72.05;97604.81;5051909;28;20492;-66
2021/03/02 03:53:54;;;;;;;25.42;12.07;;;;;;;2.54;72.02;97596.66;5052789;28;20049;-66
2021/03/02 03:56:22;;;;;;;24.70;12.20;;;;;;;2.52;72.00;97610.34;5053540;28;20048;-66
2021/03/02 03:58:49;;;;;;;26.63;10.88;;;;;;;2.47;71.81;97615.59;5052695;28;20072;-66
2021/03/02 04:01:15;;;;;;;27.30;11.30;;;;;;;2.41;72.04;97605.78;5053427;28;20053;-66
2021/03/02 04:03:42;;;;;;;23.77;11.55;;;;;;;2.38;71.94;97608.94;5052839;28;20182;-66
2021/03/02 04:06:08;;;;;;;28.38;12.10;;;;;;;2.34;71.49;97602.38;5053007;28;20037;-66
2021/03/02 04:08:35;;;;;;;26.60;11.25;;;;;;;2.30;71.40;97610.13;5052922;28;20054;-66
2021/03/02 04:11:01;;;;;;;22.52;11.15;;;;;;;2.23;71.24;97604.03;5053061;28;20570;-69
2021/03/02 04:13:28;;;;;;;22.20;10.88;;;;;;;2.16;71.17;97603.34;5053253;28;20040;-66
2021/03/02 04:15:58;;;;;;;24.48;11.35;;;;;;;2.13;71.53;97611.03;5052651;28;20044;-66
2021/03/02 04:18:24;;;;;;;23.42;11.95;;;;;;;2.07;71.69;97610.09;5052978;28;20048;-66
2021/03/02 04:20:51;;;;;;;24.23;12.98;;;;;;;2.03;71.85;97614.31;5051941;28;20114;-66
2021/03/02 04:23:17;;;;;;;27.60;13.25;;;;;;;2.00;72.20;97612.09;5052689;28;20060;-66
2021/03/02 04:25:43;;;;;;;26.75;11.60;;;;;;;1.97;72.52;97609.84;5052292;28;20124;-66
2021/03/02 04:28:10;;;;;;;23.85;10.63;;;;;;;1.93;72.65;97611.38;5052798;28;20519;-67
2021/03/02 04:30:36;;;;;;;23.25;11.00;;;;;;;1.88;72.79;97605.88;5052383;28;20519;-66
2021/03/02 04:33:03;;;;;;;30.17;12.68;;;;;;;1.82;72.87;97618.34;5052267;28;20049;-67
2021/03/02 04:35:30;;;;;;;24.45;11.60;;;;;;;1.75;73.44;97612.28;5052628;28;20044;-66
2021/03/02 04:37:56;;;;;;;30.17;13.15;;;;;;;1.70;73.73;97610.28;5051660;28;20052;-66
2021/03/02 04:40:22;;;;;;;29.13;13.52;;;;;;;1.70;74.29;97612.16;5051765;28;20048;-66
2021/03/02 04:42:49;;;;;;;25.55;12.60;;;;;;;1.66;74.42;97617.16;5051973;28;20044;-66
2021/03/02 04:45:16;;;;;;;32.55;13.50;;;;;;;1.67;74.58;97615.28;5052564;28;20049;-66
2021/03/02 04:47:44;;;;;;;28.85;12.55;;;;;;;1.68;74.58;97617.78;5051757;28;20049;-66
2021/03/02 04:50:11;;;;;;;23.05;11.63;;;;;;;1.69;74.51;97623.94;5052467;28;20045;-67
2021/03/02 04:52:37;;;;;;;27.80;12.43;;;;;;;1.70;74.54;97623.72;5052774;28;20041;-66
2021/03/02 04:55:05;;;;;;;27.70;12.82;;;;;;;1.72;74.37;97624.31;5052091;28;20466;-67
2021/03/02 04:57:31;;;;;;;28.63;13.00;;;;;;;1.74;74.24;97622.22;5052046;28;20048;-66
2021/03/02 04:59:57;;;;;;;29.98;12.85;;;;;;;1.76;74.00;97619.28;5052029;28;20041;-66
2021/03/02 05:02:23;;;;;;;28.35;13.35;;;;;;;1.77;73.53;97627.09;5051817;28;20071;-67
2021/03/02 05:04:49;;;;;;;28.83;12.48;;;;;;;1.78;73.93;97620.72;5051715;28;20053;-66
2021/03/02 05:07:15;;;;;;;24.58;12.15;;;;;;;1.77;73.53;97631.66;5053001;28;20550;-67
2021/03/02 05:09:42;;;;;;;23.95;12.02;;;;;;;1.75;73.32;97628.41;5051393;28;20652;-66
2021/03/02 05:12:08;;;;;;;25.75;13.15;;;;;;;1.73;73.23;97620.59;5052082;28;20056;-67
2021/03/02 05:14:34;;;;;;;25.63;12.65;;;;;;;1.71;73.09;97628.03;5051374;28;20079;-66
2021/03/02 05:17:01;;;;;;;27.35;13.30;;;;;;;1.69;73.19;97624.78;5052166;28;20045;-66
2021/03/02 05:19:27;;;;;;;27.70;12.23;;;;;;;1.68;73.40;97628.50;5051002;28;20037;-66
2021/03/02 05:21:53;;;;;;;27.90;13.48;;;;;;;1.66;73.36;97622.53;5051850;28;20118;-66
2021/03/02 05:24:19;;;;;;;24.85;12.55;;;;;;;1.65;73.19;97617.41;5050946;28;20455;-66
2021/03/02 05:26:44;;;;;;;25.27;12.20;;;;;;;1.62;73.23;97624.06;5051496;28;20068;-66
2021/03/02 05:29:11;;;;;;;30.63;12.52;;;;;;;1.60;73.15;97618.09;5051539;28;20415;-67
2021/03/02 05:31:36;;;;;;;27.48;12.48;;;;;;;1.59;73.33;97624.50;5050812;28;20075;-66
2021/03/02 05:34:03;;;;;;;29.95;14.20;;;;;;;1.57;73.31;97626.63;5051568;28;20068;-66
2021/03/02 05:36:29;;;;;;;27.02;12.82;;;;;;;1.56;73.06;97622.28;5050696;28;20041;-66
2021/03/02 05:38:55;;;;;;;28.35;12.90;;;;;;;1.57;73.42;97623.94;5052021;28;20122;-67
2021/03/02 05:41:22;;;;;;;24.02;12.23;;;;;;;1.54;73.41;97627.88;5050305;28;20060;-66
2021/03/02 05:43:48;;;;;;;29.13;14.30;;;;;;;1.52;73.41;97624.63;5051684;28;20045;-66
2021/03/02 05:46:15;;;;;;;32.60;13.63;;;;;;;1.51;73.70;97627.50;5050581;28;20049;-66
2021/03/02 05:48:42;;;;;;;29.50;12.77;;;;;;;1.50;73.80;97626.69;5050961;28;20450;-66
2021/03/02 05:51:09;;;;;;;28.60;13.02;;;;;;;1.50;74.03;97628.56;5049957;28;20049;-67
2021/03/02 05:53:38;;;;;;;36.45;13.93;;;;;;;1.47;74.15;97637.09;5051698;28;20040;-66
2021/03/02 05:56:06;;;;;;;28.67;14.10;;;;;;;1.47;74.18;97629.03;5051250;28;20424;-67
2021/03/02 05:58:32;;;;;;;25.23;13.70;;;;;;;1.47;74.10;97637.91;5050357;28;20053;-66
2021/03/02 06:00:58;;;;;;;28.63;13.65;;;;;;;1.47;73.63;97632.53;5051626;28;20049;-66
2021/03/02 06:03:24;;;;;;;33.53;14.05;;;;;;;1.47;73.77;97626.34;5049859;28;20564;-66
2021/03/02 06:05:50;;;;;;;28.15;13.20;;;;;;;1.46;73.84;97632.75;5051377;28;20068;-66
2021/03/02 06:08:17;;;;;;;33.70;13.98;;;;;;;1.48;73.84;97638.72;5049971;28;20454;-66
2021/03/02 06:10:43;;;;;;;33.55;14.20;;;;;;;1.48;74.13;97644.09;5050889;28;20511;-66
2021/03/02 06:13:09;;;;;;;32.00;14.20;;;;;;;1.48;74.07;97644.09;5050157;28;20110;-67
2021/03/02 06:15:35;;;;;;;30.02;14.32;;;;;;;1.50;74.25;97647.34;5050516;28;20515;-66
2021/03/02 06:18:12;;;;;;;27.33;13.77;;;;;;;1.51;74.55;97648.97;5050894;28;20492;-67
2021/03/02 06:20:38;;;;;;;28.67;13.95;;;;;;;1.53;74.55;97653.09;5049223;28;20502;-66
2021/03/02 06:23:23;;;;;;;28.42;14.02;;;;;;;1.55;74.45;97655.53;5050624;28;20056;-66
2021/03/02 06:25:49;;;;;;;31.42;13.07;;;;;;;1.56;74.41;97659.84;5050071;28;20132;-66
2021/03/02 06:28:34;;;;;;;31.58;13.52;;;;;;;1.60;74.31;97668.28;5050304;28;20505;-66
2021/03/02 06:31:00;;;;;;;31.48;13.10;;;;;;;1.65;74.23;97671.09;5050548;28;20133;-66
2021/03/02 06:33:26;;;;;;;30.35;14.20;;;;;;;1.68;74.26;97666.09;5049991;28;20056;-66
2021/03/02 06:35:52;;;;;;;29.25;12.68;;;;;;;1.70;73.78;97676.59;5050653;28;20128;-66
2021/03/02 06:38:28;;;;;;;27.38;13.10;;;;;;;1.69;73.40;97681.16;5049497;28;20055;-67
2021/03/02 06:40:54;;;;;;;29.42;13.32;;;;;;;1.69;73.44;97678.47;5051125;28;20056;-66
2021/03/02 06:43:31;;;;;;;30.52;13.88;;;;;;;1.70;73.94;97680.09;5049066;28;20041;-66
2021/03/02 06:45:59;;;;;;;29.17;13.23;;;;;;;1.74;74.23;97686.66;5050222;28;20615;-72
2021/03/02 06:48:25;;;;;;;27.77;13.07;;;;;;;1.79;74.59;97684.13;5049515;28;20045;-70
2021/03/02 06:50:51;;;;;;;28.00;13.43;;;;;;;1.86;74.75;97684.00;5049915;28;20097;-69
2021/03/02 06:53:17;;;;;;;28.88;14.23;;;;;;;1.92;74.94;97682.25;5049687;28;20057;-69
2021/03/02 06:55:44;;;;;;;33.42;15.13;;;;;;;1.98;75.20;97692.91;5049949;28;20052;-69
2021/03/02 06:58:18;;;;;;;31.58;14.90;;;;;;;2.06;74.98;97697.13;5048758;28;20053;-69
2021/03/02 07:00:50;;;;;;;36.83;15.73;;;;;;;2.15;75.19;97694.94;5048903;28;20053;-69
2021/03/02 07:03:30;;;;;;;28.58;14.45;;;;;;;2.20;74.69;97701.25;5049799;28;20049;-69
2021/03/02 07:06:02;;;;;;;31.45;14.52;;;;;;;2.23;74.86;97700.78;5049654;28;20045;-69
2021/03/02 07:08:28;;;;;;;33.58;15.07;;;;;;;2.30;74.73;97689.94;5050041;28;20377;-69
2021/03/02 07:10:56;;;;;;;29.92;14.48;;;;;;;2.38;75.05;97691.47;5049869;28;20496;-69
2021/03/02 07:13:22;;;;;;;31.00;15.57;;;;;;;2.46;75.38;97689.25;5049334;28;20060;-70
2021/03/02 07:15:51;;;;;;;32.75;16.15;;;;;;;2.56;75.65;97688.66;5050239;28;20131;-70
2021/03/02 07:18:19;;;;;;;33.22;17.52;;;;;;;2.63;75.82;97694.75;5048916;28;20131;-69
2021/03/02 07:20:48;;;;;;;37.15;17.10;;;;;;;2.79;75.92;97694.03;5050476;28;20105;-70
2021/03/02 07:23:19;;;;;;;32.20;15.98;;;;;;;2.94;75.15;97692.72;5047072;28;20068;-68
2021/03/02 07:25:47;;;;;;;35.28;16.65;;;;;;;3.06;74.72;97704.28;5049976;28;20566;-67
2021/03/02 07:28:16;;;;;;;31.13;15.98;;;;;;;3.15;74.66;97705.56;5048823;28;20048;-67
2021/03/02 07:30:45;;;;;;;35.38;16.70;;;;;;;3.29;74.94;97703.41;5049565;28;20704;-68
2021/03/02 07:33:11;;;;;;;31.55;16.65;;;;;;;3.39;74.47;97715.22;5049293;28;20094;-69
2021/03/02 07:35:37;;;;;;;32.40;16.65;;;;;;;3.50;74.17;97708.16;5049510;28;20048;-68
2021/03/02 07:38:14;;;;;;;34.03;16.52;;;;;;;3.63;73.78;97707.06;5049367;28;20128;-68
2021/03/02 07:40:46;;;;;;;31.35;16.13;;;;;;;3.81;73.40;97717.66;5049181;28;20045;-68
2021/03/02 07:43:27;;;;;;;32.50;16.35;;;;;;;4.16;72.53;97714.75;5049838;28;20063;-69
2021/03/02 07:45:54;;;;;;;30.63;15.43;;;;;;;4.65;71.00;97711.53;5049054;28;20045;-69
2021/03/02 07:48:28;;;;;;;35.63;17.35;;;;;;;5.01;69.62;97709.31;5049237;28;20056;-68
2021/03/02 07:51:18;;;;;;;28.27;15.48;;;;;;;5.28;68.16;97712.94;5049374;28;20052;-68
2021/03/02 07:53:45;;;;;;;32.05;15.40;;;;;;;5.32;67.29;97714.03;5048482;28;20041;-68
2021/03/02 07:56:25;;;;;;;31.10;15.90;;;;;;;5.20;67.49;97714.19;5047860;28;20056;-68
2021/03/02 07:59:20;;;;;;;33.85;13.82;;;;;;;5.23;67.94;97719.09;5048990;28;20053;-68
2021/03/02 08:02:14;;;;;;;33.63;15.98;;;;;;;5.39;66.82;97714.69;5048968;28;20563;-68
2021/03/02 08:04:40;;;;;;;30.23;15.65;;;;;;;5.74;66.21;97719.72;5042003;28;20087;-68
2021/03/02 08:07:21;;;;;;;28.73;14.65;;;;;;;6.03;64.69;97715.97;5048578;28;20045;-68
2021/03/02 08:09:48;;;;;;;28.50;15.13;;;;;;;6.32;65.10;97714.63;5050039;28;20052;-69
2021/03/02 08:12:25;;;;;;;29.25;15.43;;;;;;;6.75;65.83;97726.34;5048560;28;20052;-69
2021/03/02 08:14:52;;;;;;;27.45;14.05;;;;;;;7.10;63.46;97720.34;5053366;28;20098;-68
2021/03/02 08:17:19;;;;;;;26.42;13.88;;;;;;;7.53;60.79;97724.63;5052095;28;20045;-69
2021/03/02 08:19:48;;;;;;;22.17;13.77;;;;;;;8.02;59.28;97720.72;5052826;28;20049;-69
2021/03/02 08:22:49;;;;;;;26.63;14.77;;;;;;;8.67;58.94;97721.09;5052212;28;20059;-69
2021/03/02 08:25:39;;;;;;;28.30;13.93;;;;;;;9.52;55.68;97711.13;5051533;28;20045;-69
2021/03/02 08:28:08;;;;;;;27.73;13.85;;;;;;;10.20;51.96;97716.75;5052990;28;20045;-69
2021/03/02 08:30:37;;;;;;;23.27;13.10;;;;;;;10.80;51.04;97718.50;5052159;28;20048;-69
2021/03/02 08:33:06;;;;;;;26.70;14.25;;;;;;;11.41;50.43;97718.72;5047806;28;20049;-70
2021/03/02 08:35:35;;;;;;;24.20;13.25;;;;;;;11.88;49.15;97716.28;5049471;28;20049;-70
2021/03/02 08:38:03;;;;;;;26.30;14.43;;;;;;;12.25;46.63;97721.78;5049416;28;20052;-69
2021/03/02 08:40:46;;;;;;;26.92;13.90;;;;;;;12.53;47.01;97722.72;5049791;28;20056;-69
2021/03/02 08:43:15;;;;;;;23.95;13.30;;;;;;;12.73;45.75;97721.56;5048087;28;20462;-70
2021/03/02 08:45:44;;;;;;;22.73;13.20;;;;;;;12.62;45.67;97725.59;5050042;28;20122;-69
2021/03/02 08:48:19;;;;;;;23.52;13.55;;;;;;;12.65;45.15;97719.53;5048994;28;20071;-69
2021/03/02 08:50:46;;;;;;;22.52;13.73;;;;;;;12.71;45.29;97723.81;5049131;28;20052;-69
2021/03/02 08:53:33;;;;;;;23.38;13.70;;;;;;;12.68;44.05;97724.38;5048439;28;20447;-69
2021/03/02 08:56:01;;;;;;;21.60;13.43;;;;;;;12.73;44.91;97729.78;5048934;28;20048;-69
2021/03/02 08:58:32;;;;;;;25.17;13.32;;;;;;;13.07;45.01;97728.69;5049140;28;20045;-69
2021/03/02 09:01:01;;;;;;;21.63;13.88;;;;;;;13.31;44.31;97721.16;5048118;28;20687;-69
2021/03/02 09:03:28;;;;;;;21.10;13.30;;;;;;;13.28;43.88;97716.28;5049282;28;20037;-69
2021/03/02 09:06:22;;;;;;;23.13;13.90;;;;;;;12.95;43.65;97722.88;5049145;28;20057;-69
2021/03/02 09:08:54;;;;;;;28.20;14.45;;;;;;;12.95;45.19;97728.34;5012422;28;20049;-69
2021/03/02 09:11:23;;;;;;;22.90;13.52;;;;;;;12.95;44.42;97722.88;5028518;28;20049;-69
2021/03/02 09:13:49;;;;;;;21.95;13.13;;;;;;;12.82;44.43;97734.56;5028669;28;20053;-69
2021/03/02 09:16:34;;;;;;;22.35;13.02;;;;;;;12.74;44.32;97734.16;5028963;28;20500;-69
2021/03/02 09:19:05;;;;;;;24.67;13.77;;;;;;;12.39;45.50;97732.78;5028398;28;20103;-69
2021/03/02 09:21:33;;;;;;;23.58;13.98;;;;;;;12.15;45.29;97732.03;5028692;28;20047;-69
2021/03/02 09:24:00;;;;;;;20.40;12.40;;;;;;;11.98;45.95;97735.25;5027687;28;20571;-69
2021/03/02 09:26:28;;;;;;;20.50;12.32;;;;;;;11.82;46.25;97731.09;5028046;28;20753;-69
2021/03/02 09:28:56;;;;;;;24.63;13.48;;;;;;;11.93;46.70;97732.59;5028464;28;20053;-69
2021/03/02 09:31:22;;;;;;;21.67;12.13;;;;;;;12.34;45.42;97729.31;5027851;28;20076;-68
2021/03/02 09:33:50;;;;;;;20.70;12.27;;;;;;;12.61;44.35;97729.44;5028676;28;20049;-70
2021/03/02 09:36:17;;;;;;;20.42;11.88;;;;;;;12.68;44.07;97724.38;5027866;28;20045;-69
2021/03/02 09:38:44;;;;;;;18.92;11.65;;;;;;;12.78;44.29;97735.16;5028996;28;20099;-69
2021/03/02 09:41:10;;;;;;;23.15;12.90;;;;;;;12.83;45.93;97736.19;5027313;28;20119;-69
2021/03/02 09:43:37;;;;;;;22.58;12.95;;;;;;;12.95;45.45;97720.16;5028577;28;20710;-69
2021/03/02 09:46:05;;;;;;;20.02;12.38;;;;;;;13.17;44.73;97723.03;5027284;28;20069;-70
2021/03/02 09:48:45;;;;;;;23.33;12.85;;;;;;;13.39;43.42;97732.50;5028307;28;20488;-70
2021/03/02 09:51:31;;;;;;;24.25;13.00;;;;;;;13.65;42.83;97717.22;5027113;28;20049;-69
2021/03/02 09:54:12;;;;;;;24.05;12.40;;;;;;;13.78;42.50;97724.63;5027509;28;20123;-71
2021/03/02 09:56:38;;;;;;;22.88;12.02;;;;;;;14.02;41.60;97729.03;5028275;28;20045;-69
2021/03/02 09:59:05;;;;;;;24.23;12.38;;;;;;;14.07;43.31;97728.94;5026950;28;20049;-70
2021/03/02 10:01:33;;;;;;;19.02;12.07;;;;;;;14.18;40.80;97727.59;5028058;28;20111;-70
2021/03/02 10:04:06;;;;;;;20.67;11.90;;;;;;;14.39;40.51;97733.44;5026288;28;20053;-70
2021/03/02 10:06:33;;;;;;;19.00;12.30;;;;;;;14.48;40.27;97736.28;5039716;28;20150;-67
2021/03/02 10:09:00;;;;;;;20.67;11.93;;;;;;;14.70;39.26;97735.50;5047690;28;20534;-68
2021/03/02 10:11:27;;;;;;;18.40;11.77;;;;;;;14.83;40.21;97737.38;5046566;28;20079;-67
2021/03/02 10:13:54;;;;;;;17.50;10.68;;;;;;;14.85;39.45;97741.41;5047955;28;20125;-68
2021/03/02 10:16:27;;;;;;;17.98;11.32;;;;;;;14.99;38.93;97740.53;5046489;28;20223;-67
2021/03/02 10:18:55;;;;;;;18.27;11.25;;;;;;;15.26;39.83;97740.38;5046894;28;20056;-70
2021/03/02 10:21:23;;;;;;;18.20;12.30;;;;;;;15.27;39.26;97747.47;5045647;28;20104;-67
2021/03/02 10:23:52;;;;;;;20.67;13.25;;;;;;;15.20;40.29;97752.63;5047718;28;20044;-67
2021/03/02 10:26:23;;;;;;;22.73;12.65;;;;;;;15.19;39.93;97740.03;5046689;28;20052;-67
2021/03/02 10:28:49;;;;;;;21.45;12.73;;;;;;;14.95;38.63;97750.53;5047444;28;20053;-67
2021/03/02 10:31:16;;;;;;;22.02;12.93;;;;;;;14.73;39.87;97743.91;5046752;28;20075;-67
2021/03/02 10:33:42;;;;;;;20.98;11.85;;;;;;;14.59;39.07;97748.63;5046874;28;20435;-67
2021/03/02 10:36:24;;;;;;;18.20;11.98;;;;;;;14.45;39.96;97753.31;5047053;28;20057;-68
2021/03/02 10:38:51;;;;;;;18.55;11.68;;;;;;;14.32;39.35;97747.56;5046587;28;20519;-67
2021/03/02 10:41:19;;;;;;;22.17;12.13;;;;;;;14.18;40.78;97744.03;5047202;28;20613;-67
2021/03/02 10:43:46;;;;;;;18.83;11.25;;;;;;;13.96;40.70;97747.50;5046522;28;20136;-67
2021/03/02 10:46:12;;;;;;;19.60;12.52;;;;;;;13.92;42.89;97740.22;5047133;28;20049;-68
2021/03/02 10:48:38;;;;;;;20.70;12.50;;;;;;;13.91;41.99;97744.06;5046673;28;20496;-67
2021/03/02 10:51:05;;;;;;;17.13;10.80;;;;;;;13.83;41.70;97743.69;5046276;28;20048;-68
2021/03/02 10:53:31;;;;;;;20.52;12.55;;;;;;;13.76;42.34;97748.72;5046528;28;20045;-69
2021/03/02 10:55:58;;;;;;;19.25;11.55;;;;;;;13.67;42.08;97745.06;5046749;28;20500;-67
2021/03/02 10:58:24;;;;;;;26.83;13.65;;;;;;;13.63;42.85;97735.88;5046677;28;20053;-67
2021/03/02 11:00:50;;;;;;;20.88;12.23;;;;;;;13.65;43.25;97741.84;5046394;28;20041;-67
2021/03/02 11:03:16;;;;;;;22.38;12.43;;;;;;;13.64;44.43;97726.53;5046771;28;20548;-67
2021/03/02 11:05:42;;;;;;;20.75;12.82;;;;;;;13.65;43.30;97730.91;5046253;28;20085;-68
2021/03/02 11:08:08;;;;;;;23.45;12.30;;;;;;;13.55;43.14;97725.63;5047256;28;20045;-68
2021/03/02 11:10:34;;;;;;;18.92;12.05;;;;;;;13.49;43.84;97735.06;5046779;28;20052;-67
2021/03/02 11:13:01;;;;;;;20.17;12.60;;;;;;;13.31;43.98;97732.09;5046962;28;20045;-67
2021/03/02 11:15:27;;;;;;;22.63;13.05;;;;;;;13.35;44.96;97726.00;5046327;28;20450;-67
2021/03/02 11:17:53;;;;;;;23.23;13.00;;;;;;;13.14;44.33;97723.63;5046658;28;20149;-68
2021/03/02 11:20:19;;;;;;;18.27;12.20;;;;;;;13.22;44.68;97717.50;5045962;28;20136;-67
2021/03/02 11:22:45;;;;;;;20.45;13.30;;;;;;;13.27;44.74;97720.13;5046170;28;20849;-67
2021/03/02 11:25:17;;;;;;;21.85;12.50;;;;;;;13.28;44.33;97716.28;5046440;28;20053;-67
2021/03/02 11:27:44;;;;;;;17.38;11.60;;;;;;;13.26;44.26;97718.53;5046134;28;20049;-68
2021/03/02 11:30:13;;;;;;;18.83;11.82;;;;;;;13.38;45.00;97709.00;5046893;28;20396;-67
2021/03/02 11:32:39;;;;;;;21.70;12.60;;;;;;;13.43;43.97;97706.16;5045789;28;20045;-68